Time;durP1;ratioP1;P1;durP2;ratioP2;P2;SDS_P1;SDS_P2;PMS_P1;PMS_P2;Temp;Humidity;BMP_temperature;BMP_pressure;BME280_temperature;BME280_humidity;BME280_pressure;Samples;Min_cycle;Max_cycle;Signal;HPM_P1;HPM_P2
2023/03/17 00:01:04;;;;;;;2.80;1.98;;;12.90;99.90;;;;;;5049683;28;20534;-67
2023/03/17 00:03:34;;;;;;;2.05;1.85;;;12.90;99.90;;;;;;5037480;28;20275;-69
2023/03/17 00:06:03;;;;;;;4.38;2.30;;;12.70;99.90;;;;;;5037212;28;20210;-69
2023/03/17 00:08:31;;;;;;;1.75;1.65;;;12.80;99.90;;;;;;5017478;28;20186;-71
2023/03/17 00:10:57;;;;;;;3.38;2.03;;;12.80;99.90;;;;;;5035444;28;20209;-68
2023/03/17 00:13:24;;;;;;;2.17;1.70;;;12.80;99.90;;;;;;5018073;28;20229;-68
2023/03/17 00:15:57;;;;;;;2.17;1.70;;;12.90;99.90;;;;;;5034285;28;20524;-68
2023/03/17 00:18:23;;;;;;;2.03;1.50;;;12.80;99.90;;;;;;5027358;28;20277;-68
2023/03/17 00:20:50;;;;;;;2.05;1.80;;;12.70;99.90;;;;;;5031911;28;20511;-69
2023/03/17 00:23:21;;;;;;;4.63;1.55;;;12.60;99.90;;;;;;5053952;28;20190;-69
2023/03/17 00:25:47;;;;;;;5.07;1.75;;;12.60;99.90;;;;;;5032324;28;20185;-69
2023/03/17 00:28:19;;;;;;;2.42;1.92;;;12.70;99.90;;;;;;5041726;28;20650;-68
2023/03/17 00:30:46;;;;;;;3.28;1.95;;;12.60;99.90;;;;;;5033313;28;20181;-68
2023/03/17 00:33:14;;;;;;;2.05;1.63;;;12.60;99.90;;;;;;5019864;28;20194;-68
2023/03/17 00:35:42;;;;;;;2.00;1.88;;;12.60;99.90;;;;;;5047154;28;20292;-68
2023/03/17 00:38:15;;;;;;;3.50;2.33;;;12.50;99.90;;;;;;5040525;28;20202;-69
2023/03/17 00:40:42;;;;;;;2.22;2.05;;;12.50;99.90;;;;;;5047750;28;20178;-68
2023/03/17 00:43:08;;;;;;;3.10;1.63;;;12.40;99.90;;;;;;5032992;28;20201;-68
2023/03/17 00:45:33;;;;;;;3.40;1.50;;;12.40;99.90;;;;;;5044969;28;20661;-68
2023/03/17 00:47:59;;;;;;;1.52;1.42;;;12.50;99.90;;;;;;5049467;28;20190;-68
2023/03/17 00:50:27;;;;;;;1.80;1.70;;;12.50;99.90;;;;;;5023165;28;22375;-70
2023/03/17 00:52:56;;;;;;;2.03;1.58;;;12.50;99.90;;;;;;5018907;28;20206;-69
2023/03/17 00:55:25;;;;;;;4.10;2.40;;;12.60;99.90;;;;;;5031258;28;20661;-68
2023/03/17 00:57:51;;;;;;;2.25;1.50;;;12.50;99.90;;;;;;5028632;28;20285;-69
2023/03/17 01:00:25;;;;;;;3.50;1.70;;;12.50;99.90;;;;;;5031875;28;20182;-68
2023/03/17 01:02:53;;;;;;;2.20;2.00;;;12.60;99.90;;;;;;5028816;28;20174;-69
2023/03/17 01:05:22;;;;;;;1.73;1.63;;;12.60;99.90;;;;;;5028375;28;20245;-69
2023/03/17 01:07:51;;;;;;;1.70;1.60;;;12.60;99.90;;;;;;5051117;28;20690;-69
2023/03/17 01:10:27;;;;;;;1.77;1.67;;;12.60;99.90;;;;;;5029501;28;20174;-71
2023/03/17 01:12:56;;;;;;;1.65;1.55;;;12.50;99.90;;;;;;5040950;28;20173;-69
2023/03/17 01:15:24;;;;;;;1.88;1.77;;;12.40;99.90;;;;;;5034386;28;20300;-70
2023/03/17 01:17:51;;;;;;;1.92;1.83;;;12.50;99.90;;;;;;5042033;28;20170;-70
2023/03/17 01:20:23;;;;;;;2.00;1.90;;;12.40;99.90;;;;;;5052495;28;20178;-69
2023/03/17 01:22:49;;;;;;;4.03;1.60;;;12.40;99.90;;;;;;5020554;28;20635;-69
2023/03/17 01:25:16;;;;;;;1.60;1.50;;;12.50;99.90;;;;;;5026891;28;20177;-70
2023/03/17 01:27:42;;;;;;;3.40;1.65;;;12.60;99.90;;;;;;5005160;28;20187;-69
2023/03/17 01:30:20;;;;;;;1.67;1.58;;;12.70;99.90;;;;;;5024138;28;20545;-69
2023/03/17 01:32:46;;;;;;;2.75;1.92;;;12.60;99.90;;;;;;5025169;28;20181;-69
2023/03/17 01:35:12;;;;;;;2.00;1.80;;;12.50;99.90;;;;;;5031054;28;20654;-69
2023/03/17 01:37:38;;;;;;;3.55;1.83;;;12.40;99.90;;;;;;5006309;28;20651;-68
2023/03/17 01:40:08;;;;;;;2.92;1.98;;;12.40;99.90;;;;;;5034324;28;20185;-68
2023/03/17 01:42:34;;;;;;;3.13;1.90;;;12.60;99.90;;;;;;5027968;28;20186;-68
2023/03/17 01:45:06;;;;;;;2.15;1.55;;;12.60;99.90;;;;;;5034919;28;20538;-69
2023/03/17 01:47:31;;;;;;;2.03;1.90;;;12.50;99.90;;;;;;5040843;28;20182;-68
2023/03/17 01:50:05;;;;;;;1.83;1.73;;;12.40;99.90;;;;;;5045777;28;20181;-68
2023/03/17 01:52:34;;;;;;;1.90;1.80;;;12.40;99.90;;;;;;5045291;28;20245;-69
2023/03/17 01:55:05;;;;;;;1.70;1.40;;;12.20;99.90;;;;;;5046838;28;20214;-69
2023/03/17 01:57:38;;;;;;;2.13;1.40;;;12.40;99.90;;;;;;5044237;28;20184;-69
2023/03/17 02:00:06;;;;;;;1.67;1.58;;;12.40;99.90;;;;;;5037824;28;20257;-72
2023/03/17 02:02:35;;;;;;;2.05;1.60;;;12.30;99.90;;;;;;5038139;28;20205;-70
2023/03/17 02:05:04;;;;;;;1.88;1.50;;;12.40;99.90;;;;;;5032657;28;20265;-67
2023/03/17 02:07:30;;;;;;;1.60;1.50;;;12.30;99.90;;;;;;5054839;28;20217;-69
2023/03/17 02:09:56;;;;;;;2.22;2.03;;;12.30;99.90;;;;;;5061503;28;20249;-69
2023/03/17 02:12:23;;;;;;;2.20;2.03;;;12.30;99.90;;;;;;5052866;28;20597;-68
2023/03/17 02:14:50;;;;;;;2.13;1.70;;;12.40;99.90;;;;;;5062041;28;20209;-69
2023/03/17 02:17:17;;;;;;;1.92;1.70;;;12.40;99.90;;;;;;5062767;28;20219;-66
2023/03/17 02:19:43;;;;;;;2.40;1.80;;;12.30;99.90;;;;;;5054692;28;20186;-68
2023/03/17 02:22:09;;;;;;;1.67;1.42;;;12.30;99.90;;;;;;5056568;28;20273;-69
2023/03/17 02:24:50;;;;;;;1.40;1.30;;;12.20;99.90;;;;;;5062642;28;20214;-69
2023/03/17 02:27:26;;;;;;;1.63;1.50;;;12.20;99.90;;;;;;5057407;28;20213;-68
2023/03/17 02:29:52;;;;;;;2.92;1.67;;;12.20;99.90;;;;;;5061532;28;20176;-68
2023/03/17 02:32:18;;;;;;;2.25;1.83;;;12.30;99.90;;;;;;5074248;28;20509;-70
2023/03/17 02:34:47;;;;;;;2.95;1.73;;;12.20;99.90;;;;;;5057775;28;20209;-68
2023/03/17 02:37:14;;;;;;;3.63;1.65;;;12.20;99.90;;;;;;5061282;28;20264;-69
2023/03/17 02:39:41;;;;;;;3.28;2.08;;;12.20;99.90;;;;;;5071410;28;20239;-69
2023/03/17 02:42:08;;;;;;;4.68;2.42;;;12.20;99.90;;;;;;5065892;28;20649;-69
2023/03/17 02:44:34;;;;;;;2.70;1.65;;;12.20;99.90;;;;;;5067165;28;20177;-68
2023/03/17 02:47:00;;;;;;;2.45;1.73;;;12.20;99.90;;;;;;5053420;28;20182;-69
2023/03/17 02:49:26;;;;;;;1.63;1.50;;;12.20;99.90;;;;;;5054429;28;20540;-68
2023/03/17 02:51:52;;;;;;;2.42;1.73;;;12.20;99.90;;;;;;5067029;28;20185;-70
2023/03/17 02:54:18;;;;;;;2.08;1.85;;;12.10;99.90;;;;;;5070555;28;20206;-69
2023/03/17 02:56:43;;;;;;;2.60;2.38;;;12.10;99.90;;;;;;5054311;28;20217;-68
2023/03/17 02:59:09;;;;;;;2.03;1.85;;;12.20;99.90;;;;;;5057691;28;20223;-69
2023/03/17 03:01:35;;;;;;;1.75;1.65;;;12.10;99.90;;;;;;5054465;28;20193;-70
2023/03/17 03:04:02;;;;;;;1.92;1.83;;;12.10;99.90;;;;;;5072458;28;20181;-69
2023/03/17 03:06:28;;;;;;;2.63;1.90;;;12.10;99.90;;;;;;5069597;28;20224;-70
2023/03/17 03:08:54;;;;;;;4.55;1.88;;;12.20;99.90;;;;;;5069278;28;20627;-68
2023/03/17 03:11:19;;;;;;;2.45;1.75;;;12.20;99.90;;;;;;5059257;28;20190;-68
2023/03/17 03:13:45;;;;;;;3.92;2.15;;;12.10;99.90;;;;;;5054432;28;20206;-69
2023/03/17 03:16:11;;;;;;;1.70;1.60;;;12.10;99.90;;;;;;5054787;28;20178;-70
2023/03/17 03:18:37;;;;;;;1.85;1.75;;;12.10;99.90;;;;;;5054501;28;20188;-70
2023/03/17 03:21:04;;;;;;;2.47;1.75;;;12.10;99.90;;;;;;5071146;28;20266;-68
2023/03/17 03:23:30;;;;;;;3.17;1.70;;;12.30;99.90;;;;;;5061410;28;20584;-70
2023/03/17 03:25:56;;;;;;;2.45;1.50;;;12.20;99.90;;;;;;5058104;28;20181;-69
2023/03/17 03:28:22;;;;;;;4.57;2.33;;;12.20;99.90;;;;;;5053768;28;20174;-70
2023/03/17 03:30:48;;;;;;;2.50;1.98;;;12.10;99.90;;;;;;5070467;28;20280;-69
2023/03/17 03:33:14;;;;;;;2.67;1.73;;;12.10;99.90;;;;;;5063212;28;20276;-69
2023/03/17 03:35:41;;;;;;;2.03;1.90;;;12.20;99.90;;;;;;5056610;28;20197;-70
2023/03/17 03:38:07;;;;;;;2.17;1.63;;;12.20;99.90;;;;;;5068653;28;20189;-69
2023/03/17 03:40:35;;;;;;;2.08;1.98;;;12.10;99.90;;;;;;5074140;28;20192;-69
2023/03/17 03:43:01;;;;;;;1.60;1.50;;;12.10;99.90;;;;;;5070093;28;20267;-69
2023/03/17 03:45:26;;;;;;;2.08;1.80;;;12.00;99.90;;;;;;5040256;28;20182;-69
2023/03/17 03:47:52;;;;;;;5.63;2.15;;;12.10;99.90;;;;;;5056219;28;20189;-69
2023/03/17 03:50:18;;;;;;;2.03;1.90;;;12.10;99.90;;;;;;5071665;28;20209;-70
2023/03/17 03:52:44;;;;;;;2.15;2.05;;;12.10;99.90;;;;;;5065224;28;20186;-69
2023/03/17 03:55:10;;;;;;;3.78;2.85;;;12.00;99.90;;;;;;5068175;28;20209;-69
2023/03/17 03:57:36;;;;;;;2.78;1.80;;;12.00;99.90;;;;;;5063283;28;20268;-69
2023/03/17 04:00:03;;;;;;;3.45;2.20;;;12.10;99.90;;;;;;5052748;28;20182;-68
2023/03/17 04:02:30;;;;;;;4.78;1.75;;;12.10;99.90;;;;;;5061839;28;20254;-68
2023/03/17 04:04:56;;;;;;;2.60;1.85;;;12.10;99.90;;;;;;5070206;28;20271;-69
2023/03/17 04:07:23;;;;;;;2.28;1.90;;;12.10;99.90;;;;;;5045047;28;20226;-69
2023/03/17 04:09:48;;;;;;;5.47;2.20;;;12.20;99.90;;;;;;5029428;28;20178;-72
2023/03/17 04:12:17;;;;;;;2.10;1.77;;;12.10;99.90;;;;;;5021737;28;20200;-70
2023/03/17 04:14:43;;;;;;;5.17;1.90;;;12.00;99.90;;;;;;5041585;28;20674;-68
2023/03/17 04:17:13;;;;;;;2.17;1.90;;;12.00;99.90;;;;;;5038796;28;20221;-69
2023/03/17 04:19:39;;;;;;;2.17;1.88;;;12.00;99.90;;;;;;5035063;28;20185;-69
2023/03/17 04:22:06;;;;;;;3.10;2.90;;;12.10;99.90;;;;;;5025512;28;20194;-70
2023/03/17 04:24:33;;;;;;;4.20;1.88;;;12.10;99.90;;;;;;5041651;28;20212;-69
2023/03/17 04:27:00;;;;;;;2.17;2.00;;;12.00;99.90;;;;;;5051030;28;20231;-69
2023/03/17 04:29:26;;;;;;;2.17;1.70;;;12.10;99.90;;;;;;5042443;28;20241;-68
2023/03/17 04:31:52;;;;;;;4.18;1.98;;;12.10;99.90;;;;;;5022487;28;20186;-69
2023/03/17 04:34:18;;;;;;;3.75;1.75;;;12.00;99.90;;;;;;5040941;28;20215;-68
2023/03/17 04:36:46;;;;;;;2.55;2.00;;;12.00;99.90;;;;;;5045845;28;20709;-68
2023/03/17 04:39:11;;;;;;;4.18;2.05;;;12.00;99.90;;;;;;5037418;28;20183;-72
2023/03/17 04:41:37;;;;;;;2.50;2.30;;;12.00;99.90;;;;;;5021570;28;20233;-70
2023/03/17 04:44:04;;;;;;;2.53;1.92;;;12.00;99.90;;;;;;5026901;28;20699;-70
2023/03/17 04:46:30;;;;;;;4.05;2.00;;;11.80;99.90;;;;;;5052028;28;20631;-69
2023/03/17 04:48:55;;;;;;;3.08;1.92;;;12.00;99.90;;;;;;5045177;28;20186;-69
2023/03/17 04:51:21;;;;;;;3.47;1.95;;;12.10;99.90;;;;;;5047199;28;20541;-69
2023/03/17 04:53:47;;;;;;;1.95;1.75;;;12.00;99.90;;;;;;5048706;28;20216;-69
2023/03/17 04:56:13;;;;;;;3.60;2.00;;;11.90;99.90;;;;;;5041265;28;20182;-69
2023/03/17 04:58:39;;;;;;;5.60;2.15;;;11.90;99.90;;;;;;5052075;28;20261;-69
2023/03/17 05:01:06;;;;;;;3.22;2.35;;;11.90;99.90;;;;;;5042455;28;20186;-69
2023/03/17 05:03:32;;;;;;;3.45;2.10;;;11.90;99.90;;;;;;5034691;28;20638;-69
2023/03/17 05:05:58;;;;;;;3.20;2.38;;;12.00;99.90;;;;;;5034208;28;20200;-70
2023/03/17 05:08:25;;;;;;;6.28;2.00;;;12.00;99.90;;;;;;5048939;28;20179;-69
2023/03/17 05:10:51;;;;;;;2.00;1.58;;;12.00;99.90;;;;;;5046469;28;20186;-69
2023/03/17 05:13:17;;;;;;;2.15;1.98;;;11.90;99.90;;;;;;5038461;28;20217;-69
2023/03/17 05:15:47;;;;;;;4.68;1.88;;;12.00;99.90;;;;;;5043467;28;20195;-68
2023/03/17 05:18:14;;;;;;;2.80;2.13;;;11.80;99.90;;;;;;5027461;28;20228;-69
2023/03/17 05:20:40;;;;;;;2.08;1.85;;;11.80;99.90;;;;;;5031342;28;20177;-69
2023/03/17 05:23:06;;;;;;;2.87;2.00;;;11.80;99.90;;;;;;5011554;28;20186;-67
2023/03/17 05:25:32;;;;;;;3.10;1.98;;;11.80;99.90;;;;;;5041839;28;20189;-67
2023/03/17 05:27:57;;;;;;;2.58;2.10;;;11.80;99.90;;;;;;5041579;28;20186;-68
2023/03/17 05:30:24;;;;;;;3.78;2.28;;;11.80;99.90;;;;;;5007292;28;20257;-67
2023/03/17 05:32:50;;;;;;;2.80;2.13;;;11.80;99.90;;;;;;5038359;28;20178;-67
2023/03/17 05:35:17;;;;;;;2.38;1.90;;;11.90;99.90;;;;;;5043937;28;20220;-67
2023/03/17 05:37:43;;;;;;;2.25;2.03;;;11.80;99.90;;;;;;5038016;28;20194;-68
2023/03/17 05:40:11;;;;;;;5.03;2.33;;;11.70;99.90;;;;;;5040463;28;20177;-66
2023/03/17 05:42:37;;;;;;;9.73;2.80;;;11.60;99.90;;;;;;5037214;28;20646;-67
2023/03/17 05:45:04;;;;;;;3.95;2.20;;;11.70;99.90;;;;;;5045867;28;20196;-68
2023/03/17 05:47:31;;;;;;;4.50;2.33;;;11.60;99.90;;;;;;5028641;28;20175;-66
2023/03/17 05:49:57;;;;;;;5.70;1.80;;;11.50;99.90;;;;;;5037362;28;20183;-67
2023/03/17 05:52:23;;;;;;;4.90;2.27;;;11.50;99.90;;;;;;5046964;28;20272;-67
2023/03/17 05:54:51;;;;;;;3.17;2.30;;;11.40;99.90;;;;;;5044211;28;20249;-67
2023/03/17 05:57:17;;;;;;;2.30;2.07;;;11.40;99.90;;;;;;5044265;28;20240;-68
2023/03/17 05:59:42;;;;;;;3.50;1.92;;;11.40;99.90;;;;;;5048380;28;20186;-67
2023/03/17 06:02:10;;;;;;;4.97;2.10;;;11.50;99.90;;;;;;5056640;28;20186;-67
2023/03/17 06:04:36;;;;;;;5.15;2.67;;;11.40;99.90;;;;;;5051540;28;20272;-67
2023/03/17 06:07:02;;;;;;;3.72;3.10;;;11.40;99.90;;;;;;5044806;28;20620;-67
2023/03/17 06:09:27;;;;;;;1.80;1.55;;;11.60;99.90;;;;;;5050375;28;20178;-67
2023/03/17 06:11:53;;;;;;;2.60;2.40;;;11.70;99.90;;;;;;5049495;28;20205;-68
2023/03/17 06:14:19;;;;;;;2.80;2.55;;;11.70;99.90;;;;;;5047796;28;20219;-67
2023/03/17 06:16:45;;;;;;;4.97;2.93;;;11.60;99.90;;;;;;5037458;28;20193;-67
2023/03/17 06:19:11;;;;;;;4.87;2.97;;;11.80;99.90;;;;;;5041621;28;20178;-67
2023/03/17 06:21:36;;;;;;;4.30;2.70;;;11.80;99.90;;;;;;5044705;28;20186;-67
2023/03/17 06:24:02;;;;;;;3.10;2.35;;;11.70;99.90;;;;;;5038453;28;20189;-67
2023/03/17 06:26:28;;;;;;;4.43;2.23;;;11.70;99.90;;;;;;5043493;28;20190;-68
2023/03/17 06:28:54;;;;;;;3.83;2.70;;;11.70;99.90;;;;;;5026833;28;20190;-66
2023/03/17 06:31:20;;;;;;;2.93;2.33;;;11.70;99.90;;;;;;5024985;28;20225;-67
2023/03/17 06:33:47;;;;;;;2.63;2.42;;;11.70;99.90;;;;;;5049353;28;20250;-64
2023/03/17 06:36:13;;;;;;;4.82;2.70;;;11.60;99.90;;;;;;5028604;28;20570;-67
2023/03/17 06:38:38;;;;;;;4.10;2.13;;;11.50;99.90;;;;;;5043410;28;20185;-66
2023/03/17 06:41:04;;;;;;;2.08;1.95;;;11.60;99.90;;;;;;5046925;28;20191;-66
2023/03/17 06:43:31;;;;;;;6.95;2.72;;;11.70;99.90;;;;;;5036111;28;20268;-66
2023/03/17 06:45:57;;;;;;;7.10;2.97;;;11.60;99.90;;;;;;5029186;28;20186;-65
2023/03/17 06:48:23;;;;;;;3.75;2.92;;;11.70;99.90;;;;;;5047322;28;20686;-64
2023/03/17 06:50:49;;;;;;;2.38;2.08;;;11.90;99.90;;;;;;5036665;28;20205;-65
2023/03/17 06:53:15;;;;;;;3.65;2.53;;;11.90;99.90;;;;;;5043793;28;20183;-64
2023/03/17 06:55:41;;;;;;;5.65;2.90;;;11.90;99.90;;;;;;5035246;28;20178;-65
2023/03/17 06:58:09;;;;;;;3.75;2.38;;;12.00;99.90;;;;;;5040059;28;20187;-65
2023/03/17 07:00:37;;;;;;;2.78;2.15;;;12.10;99.90;;;;;;5044607;28;20259;-65
2023/03/17 07:03:04;;;;;;;4.93;2.58;;;12.20;99.90;;;;;;5046309;28;20205;-65
2023/03/17 07:05:30;;;;;;;3.20;2.67;;;12.10;99.90;;;;;;5028188;28;20264;-65
2023/03/17 07:07:56;;;;;;;2.28;2.08;;;12.00;99.90;;;;;;5064098;28;20229;-65
2023/03/17 07:10:22;;;;;;;5.55;1.90;;;12.20;99.90;;;;;;5065012;28;20629;-66
2023/03/17 07:12:48;;;;;;;3.97;2.03;;;12.30;99.90;;;;;;5060477;28;20374;-64
2023/03/17 07:15:13;;;;;;;3.38;2.53;;;12.20;99.90;;;;;;5056252;28;20224;-66
2023/03/17 07:17:40;;;;;;;6.63;2.78;;;12.30;99.90;;;;;;5060737;28;20255;-67
2023/03/17 07:20:06;;;;;;;2.55;2.25;;;12.40;99.90;;;;;;5060533;28;20265;-64
2023/03/17 07:22:32;;;;;;;5.13;2.30;;;12.50;99.90;;;;;;5064727;28;20196;-65
2023/03/17 07:24:58;;;;;;;3.92;2.70;;;12.50;99.90;;;;;;5069131;28;20193;-65
2023/03/17 07:27:25;;;;;;;3.97;2.97;;;12.70;99.90;;;;;;5064354;28;20177;-66
2023/03/17 07:29:51;;;;;;;5.05;2.90;;;12.80;99.90;;;;;;5072645;28;20615;-65
2023/03/17 07:32:17;;;;;;;5.25;2.92;;;12.90;99.90;;;;;;5061936;28;20184;-65
2023/03/17 07:34:43;;;;;;;5.57;2.40;;;13.00;99.90;;;;;;5065326;28;20209;-65
2023/03/17 07:37:09;;;;;;;2.88;2.65;;;13.30;99.90;;;;;;5063326;28;20497;-65
2023/03/17 07:39:35;;;;;;;3.72;2.50;;;13.50;99.90;;;;;;5066356;28;20243;-65
2023/03/17 07:42:01;;;;;;;4.25;2.67;;;13.80;99.90;;;;;;5065600;28;20178;-65
2023/03/17 07:44:27;;;;;;;7.93;2.58;;;14.10;99.90;;;;;;5064189;28;20284;-66
2023/03/17 07:46:54;;;;;;;3.65;3.35;;;14.50;99.90;;;;;;5066555;28;20303;-66
2023/03/17 07:49:20;;;;;;;5.88;2.72;;;15.00;99.90;;;;;;5061851;28;20170;-66
2023/03/17 07:51:46;;;;;;;3.80;2.55;;;15.30;99.90;;;;;;5072982;28;20169;-66
2023/03/17 07:54:14;;;;;;;3.72;2.55;;;15.70;99.90;;;;;;5066853;28;20220;-66
2023/03/17 07:56:41;;;;;;;2.40;2.15;;;15.60;99.90;;;;;;5067824;28;20185;-66
2023/03/17 07:59:07;;;;;;;2.80;2.60;;;15.60;99.90;;;;;;5069078;28;20189;-66
2023/03/17 08:01:33;;;;;;;5.07;2.78;;;15.70;99.90;;;;;;5069278;28;20181;-66
2023/03/17 08:04:00;;;;;;;3.50;2.33;;;15.50;99.90;;;;;;5069782;28;20185;-66
2023/03/17 08:06:26;;;;;;;5.85;2.20;;;15.40;99.90;;;;;;5058011;28;20253;-66
2023/03/17 08:08:53;;;;;;;7.78;3.30;;;15.40;99.90;;;;;;5043935;28;20194;-66
2023/03/17 08:11:19;;;;;;;3.85;2.55;;;15.40;99.90;;;;;;5046792;28;20268;-66
2023/03/17 08:13:46;;;;;;;5.60;2.60;;;15.60;99.90;;;;;;5029757;28;20206;-66
2023/03/17 08:16:13;;;;;;;3.35;2.55;;;15.80;99.90;;;;;;5026278;28;20199;-66
2023/03/17 08:18:38;;;;;;;5.63;3.05;;;15.90;99.90;;;;;;5038208;28;20514;-66
2023/03/17 08:21:05;;;;;;;7.20;2.75;;;16.00;99.90;;;;;;5048970;28;20618;-66
2023/03/17 08:23:31;;;;;;;3.50;2.42;;;15.90;99.90;;;;;;5049152;28;20198;-66
2023/03/17 08:25:58;;;;;;;3.22;2.40;;;15.90;99.90;;;;;;5048180;28;20181;-66
2023/03/17 08:28:25;;;;;;;2.33;2.13;;;15.80;99.90;;;;;;5039135;28;20193;-66
2023/03/17 08:30:51;;;;;;;5.88;2.55;;;15.50;99.90;;;;;;5040781;28;20171;-65
2023/03/17 08:33:17;;;;;;;6.00;2.83;;;15.20;99.90;;;;;;5049904;28;20188;-66
2023/03/17 08:35:43;;;;;;;3.22;2.83;;;15.00;99.90;;;;;;5052917;28;20186;-65
2023/03/17 08:38:09;;;;;;;3.83;2.70;;;14.80;99.90;;;;;;5049033;28;20672;-64
2023/03/17 08:40:35;;;;;;;4.72;1.95;;;14.80;99.90;;;;;;5039784;28;20179;-65
2023/03/17 08:43:01;;;;;;;8.90;2.80;;;14.70;99.90;;;;;;5029517;28;20179;-66
2023/03/17 08:45:27;;;;;;;2.67;2.38;;;14.50;99.90;;;;;;5043052;28;20653;-66
2023/03/17 08:47:53;;;;;;;3.28;2.45;;;14.60;99.90;;;;;;5032021;28;20221;-66
2023/03/17 08:50:22;;;;;;;3.38;2.45;;;14.80;99.90;;;;;;5039251;28;20198;-66
2023/03/17 08:52:49;;;;;;;3.33;2.15;;;14.80;99.90;;;;;;5026594;28;20175;-66
2023/03/17 08:55:15;;;;;;;3.33;2.13;;;15.10;99.90;;;;;;5036335;28;20555;-66
2023/03/17 08:57:43;;;;;;;3.30;2.95;;;15.10;99.90;;;;;;5045870;28;20178;-67
2023/03/17 09:00:14;;;;;;;2.95;2.13;;;15.10;99.90;;;;;;5050009;28;20272;-66
2023/03/17 09:02:42;;;;;;;2.80;2.10;;;15.00;99.90;;;;;;5045278;28;20177;-66
2023/03/17 09:05:11;;;;;;;3.42;2.47;;;14.90;99.90;;;;;;5047326;28;20178;-66
2023/03/17 09:07:37;;;;;;;6.97;2.42;;;15.00;99.90;;;;;;5050525;28;20552;-66
2023/03/17 09:10:05;;;;;;;4.15;2.50;;;15.40;99.90;;;;;;5048255;28;20192;-66
2023/03/17 09:12:31;;;;;;;4.50;3.17;;;15.50;99.90;;;;;;5033949;28;20174;-65
2023/03/17 09:14:58;;;;;;;4.18;2.97;;;15.20;99.90;;;;;;5044176;28;20214;-67
2023/03/17 09:17:24;;;;;;;3.45;2.45;;;15.10;99.90;;;;;;5021786;28;20282;-66
2023/03/17 09:19:49;;;;;;;4.22;2.25;;;15.10;99.90;;;;;;5043190;28;20261;-67
2023/03/17 09:22:17;;;;;;;2.53;2.00;;;15.40;99.90;;;;;;5036232;28;20194;-66
2023/03/17 09:24:45;;;;;;;3.45;2.80;;;15.40;99.90;;;;;;5038604;28;20553;-66
2023/03/17 09:27:11;;;;;;;4.03;3.03;;;15.40;99.90;;;;;;5044016;28;20174;-66
2023/03/17 09:29:37;;;;;;;6.43;2.92;;;15.40;99.90;;;;;;5047411;28;20270;-66
2023/03/17 09:32:03;;;;;;;5.65;3.00;;;15.40;99.90;;;;;;5047149;28;20268;-66
2023/03/17 09:34:29;;;;;;;5.43;2.80;;;15.50;99.90;;;;;;5030499;28;20212;-66
2023/03/17 09:36:55;;;;;;;5.10;2.60;;;15.50;99.90;;;;;;5042739;28;20182;-66
2023/03/17 09:39:22;;;;;;;4.38;3.03;;;15.50;99.90;;;;;;5045980;28;20640;-66
2023/03/17 09:42:12;;;;;;;4.78;3.20;;;15.40;99.90;;;;;;5051838;28;20532;-66
2023/03/17 09:45:01;;;;;;;3.97;2.83;;;15.40;99.90;;;;;;5033265;28;20204;-66
2023/03/17 09:47:29;;;;;;;2.97;2.67;;;15.20;99.90;;;;;;5038782;28;20186;-66
2023/03/17 09:49:59;;;;;;;4.50;3.22;;;15.20;99.90;;;;;;5047500;28;20186;-66
2023/03/17 09:52:29;;;;;;;6.47;2.88;;;15.50;99.90;;;;;;5028907;28;20265;-69
2023/03/17 09:54:55;;;;;;;6.50;3.33;;;15.50;99.90;;;;;;5043532;28;20206;-66
2023/03/17 09:57:31;;;;;;;5.15;3.42;;;15.80;99.90;;;;;;5046298;28;20680;-66
2023/03/17 10:00:13;;;;;;;5.38;3.00;;;16.00;99.90;;;;;;5050662;28;20523;-66
2023/03/17 10:02:40;;;;;;;4.65;3.33;;;16.10;99.90;;;;;;5039763;28;20186;-66
2023/03/17 10:05:22;;;;;;;8.90;3.17;;;16.40;99.90;;;;;;5041010;28;20178;-66
2023/03/17 10:08:23;;;;;;;5.50;2.75;;;16.80;99.90;;;;;;5046221;28;20532;-66
2023/03/17 10:11:20;;;;;;;8.23;3.95;;;17.00;99.90;;;;;;5000318;28;20556;-66
2023/03/17 10:14:02;;;;;;;4.22;2.55;;;17.20;99.90;;;;;;5015761;28;20222;-66
2023/03/17 10:16:48;;;;;;;4.70;3.03;;;17.50;99.90;;;;;;5034713;28;20256;-66
2023/03/17 10:19:29;;;;;;;3.72;3.38;;;17.60;99.90;;;;;;5025066;28;20639;-66
2023/03/17 10:22:18;;;;;;;3.97;2.88;;;17.90;99.90;;;;;;5051109;28;20185;-67
2023/03/17 10:24:51;;;;;;;5.43;2.92;;;18.20;99.90;;;;;;5040006;28;20189;-66
2023/03/17 10:27:18;;;;;;;5.57;3.30;;;18.40;99.90;;;;;;5051312;28;20182;-66
2023/03/17 10:29:44;;;;;;;6.03;3.10;;;18.40;99.90;;;;;;5019408;28;20546;-66
2023/03/17 10:32:12;;;;;;;7.60;2.67;;;18.50;99.90;;;;;;5034604;28;20265;-69
2023/03/17 10:34:40;;;;;;;4.55;3.05;;;18.70;99.90;;;;;;5049615;28;20210;-66
2023/03/17 10:37:11;;;;;;;6.65;3.40;;;18.80;99.90;;;;;;5045159;28;20186;-67
2023/03/17 10:39:51;;;;;;;5.55;3.08;;;18.80;99.90;;;;;;5050668;28;20622;-66
2023/03/17 10:42:28;;;;;;;3.45;2.55;;;18.70;99.90;;;;;;5055262;28;20256;-66
2023/03/17 10:45:06;;;;;;;7.70;2.58;;;18.90;99.90;;;;;;5039214;28;20170;-66
2023/03/17 10:47:38;;;;;;;4.95;2.60;;;18.80;99.90;;;;;;5047398;28;20185;-66
2023/03/17 10:50:20;;;;;;;7.28;3.13;;;18.80;99.90;;;;;;5054648;28;20189;-66
2023/03/17 10:52:51;;;;;;;4.50;3.17;;;18.70;99.90;;;;;;5054713;28;20178;-66
2023/03/17 10:55:20;;;;;;;7.72;2.95;;;18.60;99.90;;;;;;5035716;28;20317;-66
2023/03/17 10:57:59;;;;;;;4.55;3.42;;;18.70;99.90;;;;;;5035767;28;20217;-66
2023/03/17 11:00:28;;;;;;;4.32;2.90;;;18.90;99.90;;;;;;5046406;28;20170;-66
2023/03/17 11:02:58;;;;;;;3.17;2.60;;;18.80;99.90;;;;;;5047313;28;20257;-66
2023/03/17 11:05:28;;;;;;;4.03;2.90;;;18.90;99.90;;;;;;5049916;28;20205;-66
2023/03/17 11:08:16;;;;;;;4.80;3.13;;;19.00;99.90;;;;;;5040561;28;20226;-66
2023/03/17 11:10:43;;;;;;;3.60;2.78;;;18.90;99.90;;;;;;5043375;28;20170;-66
2023/03/17 11:13:14;;;;;;;4.07;2.95;;;18.90;99.90;;;;;;5054444;28;20263;-66
2023/03/17 11:15:56;;;;;;;3.40;2.63;;;18.80;99.90;;;;;;5038941;28;20221;-66
2023/03/17 11:18:27;;;;;;;2.67;2.38;;;19.00;99.90;;;;;;5036015;28;20654;-66
2023/03/17 11:21:03;;;;;;;3.83;2.50;;;19.10;99.90;;;;;;5024668;28;20185;-66
2023/03/17 11:23:41;;;;;;;3.70;2.72;;;19.40;99.90;;;;;;5044043;28;20178;-65
2023/03/17 11:26:51;;;;;;;5.95;2.55;;;19.60;99.90;;;;;;5035717;28;20186;-66
2023/03/17 11:29:53;;;;;;;6.10;2.47;;;19.50;99.90;;;;;;5047384;28;20194;-66
2023/03/17 11:32:30;;;;;;;10.05;3.50;;;19.80;99.90;;;;;;5023309;28;20183;-66
2023/03/17 11:35:27;;;;;;;4.90;2.80;;;19.60;99.90;;;;;;5041908;28;20229;-66
2023/03/17 11:38:12;;;;;;;3.17;2.38;;;19.60;99.90;;;;;;5054070;28;20170;-66
2023/03/17 11:41:03;;;;;;;4.35;2.50;;;19.40;99.90;;;;;;5052124;28;20182;-66
2023/03/17 11:44:13;;;;;;;2.80;2.10;;;19.30;99.90;;;;;;5041554;28;20185;-65
2023/03/17 11:47:03;;;;;;;3.78;2.72;;;19.40;99.90;;;;;;5043273;28;20178;-67
2023/03/17 11:49:37;;;;;;;5.30;2.97;;;19.60;99.90;;;;;;5040660;28;20253;-66
2023/03/17 11:52:12;;;;;;;3.08;2.05;;;19.90;99.90;;;;;;5047558;28;20629;-65
2023/03/17 11:55:13;;;;;;;3.88;2.53;;;19.90;99.90;;;;;;5040604;28;20252;-66
2023/03/17 11:58:09;;;;;;;5.38;2.70;;;19.70;99.90;;;;;;5008587;28;20662;-67
2023/03/17 12:01:07;;;;;;;4.30;2.55;;;19.60;99.90;;;;;;5026115;28;20182;-65
2023/03/17 12:03:44;;;;;;;4.75;2.92;;;19.40;99.90;;;;;;5038363;28;20181;-66
2023/03/17 12:06:49;;;;;;;3.78;2.63;;;19.40;99.90;;;;;;5046570;28;20229;-65
2023/03/17 12:09:45;;;;;;;3.78;2.40;;;19.40;99.90;;;;;;5013103;28;20198;-65
2023/03/17 12:12:15;;;;;;;3.83;2.75;;;19.60;99.90;;;;;;5049828;28;20232;-65
2023/03/17 12:14:47;;;;;;;5.25;2.33;;;19.60;99.90;;;;;;5046796;28;20260;-66
2023/03/17 12:17:32;;;;;;;4.10;1.98;;;19.70;99.90;;;;;;5035864;28;20205;-67
2023/03/17 12:20:17;;;;;;;7.15;2.08;;;19.80;99.90;;;;;;5045859;28;20646;-67
2023/03/17 12:23:21;;;;;;;3.63;2.83;;;19.60;99.90;;;;;;5052008;28;20166;-68
2023/03/17 12:26:06;;;;;;;6.60;3.03;;;19.70;99.90;;;;;;5029170;28;20189;-65
2023/03/17 12:28:41;;;;;;;9.63;3.35;;;19.90;99.90;;;;;;5043007;28;20196;-66
2023/03/17 12:31:23;;;;;;;2.97;2.72;;;20.10;99.90;;;;;;5041239;28;20264;-65
2023/03/17 12:34:04;;;;;;;4.10;2.50;;;19.80;99.90;;;;;;5050759;28;20212;-66
2023/03/17 12:36:30;;;;;;;4.57;3.17;;;19.70;99.90;;;;;;5029936;28;20627;-66
2023/03/17 12:39:10;;;;;;;7.13;3.80;;;19.60;99.90;;;;;;5009037;28;20227;-66
2023/03/17 12:42:00;;;;;;;6.45;3.20;;;19.60;99.90;;;;;;5028975;28;20239;-65
2023/03/17 12:44:40;;;;;;;8.27;2.78;;;19.70;99.90;;;;;;5022089;28;20577;-66
2023/03/17 12:47:05;;;;;;;5.03;2.55;;;20.00;99.90;;;;;;5044882;28;20522;-66
2023/03/17 12:50:09;;;;;;;2.83;2.63;;;20.00;99.90;;;;;;5044779;28;20174;-67
2023/03/17 12:53:13;;;;;;;4.10;2.38;;;20.00;99.90;;;;;;5034817;28;20505;-67
2023/03/17 12:55:41;;;;;;;6.45;2.40;;;20.10;99.90;;;;;;5015805;28;20216;-66
2023/03/17 12:58:39;;;;;;;2.50;2.30;;;20.10;99.90;;;;;;5047964;28;20664;-67
2023/03/17 13:01:33;;;;;;;5.05;2.15;;;20.30;99.90;;;;;;5044884;28;20689;-70
2023/03/17 13:04:14;;;;;;;2.88;1.90;;;20.40;99.90;;;;;;5040147;28;20658;-66